sensor_id;sensor_type;location;lat;lon;timestamp;temperature;humidity
38458;DHT22;24239;48.058;10.486;2022-10-16T00:00:32;11.60;99.90
38458;DHT22;24239;48.058;10.486;2022-10-16T00:02:58;11.70;99.90
38458;DHT22;24239;48.058;10.486;2022-10-16T00:05:24;11.60;99.90
38458;DHT22;24239;48.058;10.486;2022-10-16T00:07:49;11.60;99.90
38458;DHT22;24239;48.058;10.486;2022-10-16T00:10:15;11.60;99.90
38458;DHT22;24239;48.058;10.486;2022-10-16T00:12:41;11.60;99.90
38458;DHT22;24239;48.058;10.486;2022-10-16T00:15:06;11.60;99.90
38458;DHT22;24239;48.058;10.486;2022-10-16T00:17:32;11.60;99.90
38458;DHT22;24239;48.058;10.486;2022-10-16T00:19:58;11.50;99.90
38458;DHT22;24239;48.058;10.486;2022-10-16T00:22:23;11.60;99.90
38458;DHT22;24239;48.058;10.486;2022-10-16T00:24:49;11.60;99.90
38458;DHT22;24239;48.058;10.486;2022-10-16T00:27:15;11.50;99.90
38458;DHT22;24239;48.058;10.486;2022-10-16T00:29:41;11.50;99.90
38458;DHT22;24239;48.058;10.486;2022-10-16T00:32:07;11.50;99.90
38458;DHT22;24239;48.058;10.486;2022-10-16T00:34:32;11.50;99.90
38458;DHT22;24239;48.058;10.486;2022-10-16T00:36:58;11.40;99.90
38458;DHT22;24239;48.058;10.486;2022-10-16T00:39:24;11.40;99.90
38458;DHT22;24239;48.058;10.486;2022-10-16T00:41:50;11.40;99.90
38458;DHT22;24239;48.058;10.486;2022-10-16T00:47:00;11.40;99.90
38458;DHT22;24239;48.058;10.486;2022-10-16T00:49:26;11.30;99.90
38458;DHT22;24239;48.058;10.486;2022-10-16T00:51:52;11.30;99.90
38458;DHT22;24239;48.058;10.486;2022-10-16T00:54:25;11.30;99.90
38458;DHT22;24239;48.058;10.486;2022-10-16T00:56:52;11.30;99.90
38458;DHT22;24239;48.058;10.486;2022-10-16T00:59:23;11.40;99.90
38458;DHT22;24239;48.058;10.486;2022-10-16T01:01:50;11.30;99.90
38458;DHT22;24239;48.058;10.486;2022-10-16T01:04:16;11.30;99.90
38458;DHT22;24239;48.058;10.486;2022-10-16T01:09:35;11.30;99.90
38458;DHT22;24239;48.058;10.486;2022-10-16T01:14:58;11.30;99.90
38458;DHT22;24239;48.058;10.486;2022-10-16T01:22:29;11.50;99.90
38458;DHT22;24239;48.058;10.486;2022-10-16T01:24:58;11.60;99.90
38458;DHT22;24239;48.058;10.486;2022-10-16T01:27:30;11.60;99.90
38458;DHT22;24239;48.058;10.486;2022-10-16T01:32:33;11.60;99.90
38458;DHT22;24239;48.058;10.486;2022-10-16T01:35:02;11.60;99.90
38458;DHT22;24239;48.058;10.486;2022-10-16T01:37:33;11.60;99.90
38458;DHT22;24239;48.058;10.486;2022-10-16T01:40:02;11.60;99.90
38458;DHT22;24239;48.058;10.486;2022-10-16T01:42:34;11.50;99.90
38458;DHT22;24239;48.058;10.486;2022-10-16T01:45:01;11.50;99.90
38458;DHT22;24239;48.058;10.486;2022-10-16T01:47:28;11.50;99.90
38458;DHT22;24239;48.058;10.486;2022-10-16T01:49:55;11.40;99.90
38458;DHT22;24239;48.058;10.486;2022-10-16T01:52:23;11.40;99.90
38458;DHT22;24239;48.058;10.486;2022-10-16T01:54:50;11.30;99.90
38458;DHT22;24239;48.058;10.486;2022-10-16T01:57:18;11.30;99.90
38458;DHT22;24239;48.058;10.486;2022-10-16T01:59:50;11.40;99.90
38458;DHT22;24239;48.058;10.486;2022-10-16T02:02:18;11.40;99.90
38458;DHT22;24239;48.058;10.486;2022-10-16T02:04:46;11.30;99.90
38458;DHT22;24239;48.058;10.486;2022-10-16T02:07:12;11.30;99.90
38458;DHT22;24239;48.058;10.486;2022-10-16T02:09:39;11.40;99.90
38458;DHT22;24239;48.058;10.486;2022-10-16T02:12:15;11.40;99.90
38458;DHT22;24239;48.058;10.486;2022-10-16T02:14:44;11.40;99.90
38458;DHT22;24239;48.058;10.486;2022-10-16T02:17:14;11.40;99.90
38458;DHT22;24239;48.058;10.486;2022-10-16T02:19:40;11.50;99.90
38458;DHT22;24239;48.058;10.486;2022-10-16T02:22:07;11.50;99.90
38458;DHT22;24239;48.058;10.486;2022-10-16T02:24:37;11.60;99.90
38458;DHT22;24239;48.058;10.486;2022-10-16T02:29:37;11.70;99.90
38458;DHT22;24239;48.058;10.486;2022-10-16T02:32:04;11.70;99.90
38458;DHT22;24239;48.058;10.486;2022-10-16T02:34:31;11.70;99.90
38458;DHT22;24239;48.058;10.486;2022-10-16T02:36:58;11.70;99.90
38458;DHT22;24239;48.058;10.486;2022-10-16T02:39:24;11.70;99.90
38458;DHT22;24239;48.058;10.486;2022-10-16T02:41:50;11.80;99.90
38458;DHT22;24239;48.058;10.486;2022-10-16T02:44:16;11.80;99.90
38458;DHT22;24239;48.058;10.486;2022-10-16T02:46:41;11.80;99.90
38458;DHT22;24239;48.058;10.486;2022-10-16T02:49:07;11.80;99.90
38458;DHT22;24239;48.058;10.486;2022-10-16T02:51:33;11.90;99.90
38458;DHT22;24239;48.058;10.486;2022-10-16T02:53:58;11.90;99.90
38458;DHT22;24239;48.058;10.486;2022-10-16T02:56:24;12.00;99.90
38458;DHT22;24239;48.058;10.486;2022-10-16T02:58:50;12.00;99.90
38458;DHT22;24239;48.058;10.486;2022-10-16T03:01:15;12.00;99.90
38458;DHT22;24239;48.058;10.486;2022-10-16T03:03:42;12.10;99.90
38458;DHT22;24239;48.058;10.486;2022-10-16T03:06:08;12.10;99.90
38458;DHT22;24239;48.058;10.486;2022-10-16T03:08:33;12.00;99.90
38458;DHT22;24239;48.058;10.486;2022-10-16T03:10:59;12.10;99.90
38458;DHT22;24239;48.058;10.486;2022-10-16T03:13:25;12.10;99.90
38458;DHT22;24239;48.058;10.486;2022-10-16T03:15:50;12.20;99.90
38458;DHT22;24239;48.058;10.486;2022-10-16T03:18:16;12.20;99.90
38458;DHT22;24239;48.058;10.486;2022-10-16T03:20:44;12.20;99.90
38458;DHT22;24239;48.058;10.486;2022-10-16T03:23:10;12.20;99.90
38458;DHT22;24239;48.058;10.486;2022-10-16T03:25:36;12.20;99.90
38458;DHT22;24239;48.058;10.486;2022-10-16T03:28:01;12.20;99.90
38458;DHT22;24239;48.058;10.486;2022-10-16T03:30:28;12.20;99.90
38458;DHT22;24239;48.058;10.486;2022-10-16T03:32:54;12.20;99.90
38458;DHT22;24239;48.058;10.486;2022-10-16T03:35:20;12.20;99.90
38458;DHT22;24239;48.058;10.486;2022-10-16T03:37:45;12.20;99.90
38458;DHT22;24239;48.058;10.486;2022-10-16T03:40:11;12.20;99.90
38458;DHT22;24239;48.058;10.486;2022-10-16T03:42:37;12.20;99.90
38458;DHT22;24239;48.058;10.486;2022-10-16T03:45:03;12.20;99.90
38458;DHT22;24239;48.058;10.486;2022-10-16T03:47:28;12.20;99.90
38458;DHT22;24239;48.058;10.486;2022-10-16T03:49:54;12.20;99.90
38458;DHT22;24239;48.058;10.486;2022-10-16T03:52:20;12.20;99.90
38458;DHT22;24239;48.058;10.486;2022-10-16T03:54:45;12.20;99.90
38458;DHT22;24239;48.058;10.486;2022-10-16T03:57:11;12.20;99.90
38458;DHT22;24239;48.058;10.486;2022-10-16T03:59:37;12.10;99.90
38458;DHT22;24239;48.058;10.486;2022-10-16T04:02:02;12.10;99.90
38458;DHT22;24239;48.058;10.486;2022-10-16T04:04:28;12.10;99.90
38458;DHT22;24239;48.058;10.486;2022-10-16T04:06:53;12.00;99.90
38458;DHT22;24239;48.058;10.486;2022-10-16T04:09:22;12.00;99.90
38458;DHT22;24239;48.058;10.486;2022-10-16T04:11:48;11.90;99.90
38458;DHT22;24239;48.058;10.486;2022-10-16T04:14:13;11.90;99.90
38458;DHT22;24239;48.058;10.486;2022-10-16T04:16:39;11.90;99.90
38458;DHT22;24239;48.058;10.486;2022-10-16T04:19:05;11.90;99.90
38458;DHT22;24239;48.058;10.486;2022-10-16T04:21:30;11.90;99.90
38458;DHT22;24239;48.058;10.486;2022-10-16T04:23:56;11.80;99.90
38458;DHT22;24239;48.058;10.486;2022-10-16T04:26:22;11.80;99.90
38458;DHT22;24239;48.058;10.486;2022-10-16T04:28:47;11.80;99.90
38458;DHT22;24239;48.058;10.486;2022-10-16T04:31:20;11.80;99.90
38458;DHT22;24239;48.058;10.486;2022-10-16T04:33:46;11.80;99.90
38458;DHT22;24239;48.058;10.486;2022-10-16T04:36:12;11.80;99.90
38458;DHT22;24239;48.058;10.486;2022-10-16T04:38:37;11.80;99.90
38458;DHT22;24239;48.058;10.486;2022-10-16T04:41:05;11.80;99.90
38458;DHT22;24239;48.058;10.486;2022-10-16T04:43:31;11.80;99.90
38458;DHT22;24239;48.058;10.486;2022-10-16T04:45:56;11.80;99.90
38458;DHT22;24239;48.058;10.486;2022-10-16T04:48:22;11.80;99.90
38458;DHT22;24239;48.058;10.486;2022-10-16T04:50:48;11.80;99.90
38458;DHT22;24239;48.058;10.486;2022-10-16T04:53:13;11.80;99.90
38458;DHT22;24239;48.058;10.486;2022-10-16T04:55:39;11.90;99.90
38458;DHT22;24239;48.058;10.486;2022-10-16T04:58:05;11.80;99.90
38458;DHT22;24239;48.058;10.486;2022-10-16T05:00:30;11.80;99.90
38458;DHT22;24239;48.058;10.486;2022-10-16T05:02:59;11.80;99.90
38458;DHT22;24239;48.058;10.486;2022-10-16T05:05:26;11.90;99.90
38458;DHT22;24239;48.058;10.486;2022-10-16T05:07:52;11.90;99.90
38458;DHT22;24239;48.058;10.486;2022-10-16T05:10:18;11.90;99.90
38458;DHT22;24239;48.058;10.486;2022-10-16T05:12:43;11.90;99.90
38458;DHT22;24239;48.058;10.486;2022-10-16T05:15:09;11.90;99.90
38458;DHT22;24239;48.058;10.486;2022-10-16T05:17:35;11.90;99.90
38458;DHT22;24239;48.058;10.486;2022-10-16T05:20:01;12.00;99.90
38458;DHT22;24239;48.058;10.486;2022-10-16T05:22:30;11.90;99.90
38458;DHT22;24239;48.058;10.486;2022-10-16T05:24:55;11.90;99.90
38458;DHT22;24239;48.058;10.486;2022-10-16T05:27:21;11.90;99.90
38458;DHT22;24239;48.058;10.486;2022-10-16T05:29:47;11.90;99.90
38458;DHT22;24239;48.058;10.486;2022-10-16T05:32:13;11.80;99.90
38458;DHT22;24239;48.058;10.486;2022-10-16T05:34:39;11.80;99.90
38458;DHT22;24239;48.058;10.486;2022-10-16T05:37:05;11.80;99.90
38458;DHT22;24239;48.058;10.486;2022-10-16T05:39:30;11.70;99.90
38458;DHT22;24239;48.058;10.486;2022-10-16T05:41:56;11.60;99.90
38458;DHT22;24239;48.058;10.486;2022-10-16T05:44:21;11.60;99.90
38458;DHT22;24239;48.058;10.486;2022-10-16T05:46:50;11.60;99.90
38458;DHT22;24239;48.058;10.486;2022-10-16T05:49:16;11.50;99.90
38458;DHT22;24239;48.058;10.486;2022-10-16T05:51:41;11.50;99.90
38458;DHT22;24239;48.058;10.486;2022-10-16T05:54:07;11.50;99.90
38458;DHT22;24239;48.058;10.486;2022-10-16T05:56:33;11.50;99.90
38458;DHT22;24239;48.058;10.486;2022-10-16T05:58:59;11.50;99.90
38458;DHT22;24239;48.058;10.486;2022-10-16T06:01:27;11.50;99.90
38458;DHT22;24239;48.058;10.486;2022-10-16T06:03:53;11.50;99.90
38458;DHT22;24239;48.058;10.486;2022-10-16T06:06:20;11.40;99.90
38458;DHT22;24239;48.058;10.486;2022-10-16T06:08:46;11.50;99.90
38458;DHT22;24239;48.058;10.486;2022-10-16T06:11:14;11.50;99.90
38458;DHT22;24239;48.058;10.486;2022-10-16T06:13:40;11.50;99.90
38458;DHT22;24239;48.058;10.486;2022-10-16T06:16:11;11.50;99.90
38458;DHT22;24239;48.058;10.486;2022-10-16T06:18:37;11.50;99.90
38458;DHT22;24239;48.058;10.486;2022-10-16T06:21:07;11.50;99.90
38458;DHT22;24239;48.058;10.486;2022-10-16T06:23:33;11.50;99.90
38458;DHT22;24239;48.058;10.486;2022-10-16T06:26:09;11.50;99.90
38458;DHT22;24239;48.058;10.486;2022-10-16T06:28:34;11.60;99.90
38458;DHT22;24239;48.058;10.486;2022-10-16T06:31:00;11.60;99.90
38458;DHT22;24239;48.058;10.486;2022-10-16T06:33:26;11.70;99.90
38458;DHT22;24239;48.058;10.486;2022-10-16T06:35:52;11.80;99.90
38458;DHT22;24239;48.058;10.486;2022-10-16T06:38:17;11.90;99.90
38458;DHT22;24239;48.058;10.486;2022-10-16T06:40:46;12.00;99.90
38458;DHT22;24239;48.058;10.486;2022-10-16T06:43:14;12.10;99.90
38458;DHT22;24239;48.058;10.486;2022-10-16T06:45:40;12.30;99.90
38458;DHT22;24239;48.058;10.486;2022-10-16T06:48:06;12.40;99.90
38458;DHT22;24239;48.058;10.486;2022-10-16T06:50:32;12.60;99.90
38458;DHT22;24239;48.058;10.486;2022-10-16T06:52:57;12.70;99.90
38458;DHT22;24239;48.058;10.486;2022-10-16T06:55:23;12.80;99.90
38458;DHT22;24239;48.058;10.486;2022-10-16T06:57:49;13.00;99.90
38458;DHT22;24239;48.058;10.486;2022-10-16T07:00:15;13.10;99.90
38458;DHT22;24239;48.058;10.486;2022-10-16T07:02:41;13.30;99.90
38458;DHT22;24239;48.058;10.486;2022-10-16T07:05:06;13.40;99.90
38458;DHT22;24239;48.058;10.486;2022-10-16T07:07:32;13.50;99.90
38458;DHT22;24239;48.058;10.486;2022-10-16T07:09:58;13.70;99.90
38458;DHT22;24239;48.058;10.486;2022-10-16T07:12:23;13.80;99.90
38458;DHT22;24239;48.058;10.486;2022-10-16T07:14:49;13.90;99.90
38458;DHT22;24239;48.058;10.486;2022-10-16T07:17:17;14.00;99.90
38458;DHT22;24239;48.058;10.486;2022-10-16T07:19:43;14.10;99.90
38458;DHT22;24239;48.058;10.486;2022-10-16T07:22:08;14.20;99.90
38458;DHT22;24239;48.058;10.486;2022-10-16T07:24:34;14.30;99.90
38458;DHT22;24239;48.058;10.486;2022-10-16T07:27:00;14.40;99.90
38458;DHT22;24239;48.058;10.486;2022-10-16T07:29:26;14.50;99.90
38458;DHT22;24239;48.058;10.486;2022-10-16T07:31:51;14.60;99.90
38458;DHT22;24239;48.058;10.486;2022-10-16T07:34:18;14.70;99.90
38458;DHT22;24239;48.058;10.486;2022-10-16T07:36:44;14.80;99.90
38458;DHT22;24239;48.058;10.486;2022-10-16T07:39:09;14.90;99.90
38458;DHT22;24239;48.058;10.486;2022-10-16T07:41:38;15.00;99.90
38458;DHT22;24239;48.058;10.486;2022-10-16T07:44:04;15.10;99.90
38458;DHT22;24239;48.058;10.486;2022-10-16T07:46:30;15.00;99.90
38458;DHT22;24239;48.058;10.486;2022-10-16T07:48:56;15.10;99.90
38458;DHT22;24239;48.058;10.486;2022-10-16T07:51:22;15.10;99.90
38458;DHT22;24239;48.058;10.486;2022-10-16T07:53:48;15.10;99.90
38458;DHT22;24239;48.058;10.486;2022-10-16T07:56:15;15.20;99.90
38458;DHT22;24239;48.058;10.486;2022-10-16T07:58:41;15.10;99.90
38458;DHT22;24239;48.058;10.486;2022-10-16T08:01:07;15.20;99.90
38458;DHT22;24239;48.058;10.486;2022-10-16T08:03:34;15.20;99.90
38458;DHT22;24239;48.058;10.486;2022-10-16T08:06:00;15.40;99.90
38458;DHT22;24239;48.058;10.486;2022-10-16T08:08:26;15.50;99.90
38458;DHT22;24239;48.058;10.486;2022-10-16T08:10:52;15.70;99.90
38458;DHT22;24239;48.058;10.486;2022-10-16T08:13:18;15.90;99.90
38458;DHT22;24239;48.058;10.486;2022-10-16T08:15:44;16.00;99.90
38458;DHT22;24239;48.058;10.486;2022-10-16T08:18:10;16.20;99.90
38458;DHT22;24239;48.058;10.486;2022-10-16T08:20:36;16.30;99.90
38458;DHT22;24239;48.058;10.486;2022-10-16T08:23:02;16.50;99.90
38458;DHT22;24239;48.058;10.486;2022-10-16T08:25:28;16.70;99.90
38458;DHT22;24239;48.058;10.486;2022-10-16T08:27:54;16.90;99.90
38458;DHT22;24239;48.058;10.486;2022-10-16T08:30:20;17.10;99.90
38458;DHT22;24239;48.058;10.486;2022-10-16T08:32:46;17.20;99.90
38458;DHT22;24239;48.058;10.486;2022-10-16T08:35:12;17.30;99.90
38458;DHT22;24239;48.058;10.486;2022-10-16T08:37:38;17.50;99.90
38458;DHT22;24239;48.058;10.486;2022-10-16T08:40:05;17.70;99.90
38458;DHT22;24239;48.058;10.486;2022-10-16T08:50:23;18.70;99.90
38458;DHT22;24239;48.058;10.486;2022-10-16T08:53:02;18.90;99.90
38458;DHT22;24239;48.058;10.486;2022-10-16T09:00:38;19.40;99.90
38458;DHT22;24239;48.058;10.486;2022-10-16T09:16:42;20.40;99.90
38458;DHT22;24239;48.058;10.486;2022-10-16T09:19:14;20.50;99.90
38458;DHT22;24239;48.058;10.486;2022-10-16T09:21:43;20.60;99.90
38458;DHT22;24239;48.058;10.486;2022-10-16T09:24:10;20.60;99.90
38458;DHT22;24239;48.058;10.486;2022-10-16T09:26:38;20.70;99.90
38458;DHT22;24239;48.058;10.486;2022-10-16T09:29:03;20.70;99.90
38458;DHT22;24239;48.058;10.486;2022-10-16T09:31:29;20.60;99.90
38458;DHT22;24239;48.058;10.486;2022-10-16T09:33:57;20.70;99.90
38458;DHT22;24239;48.058;10.486;2022-10-16T09:36:23;20.60;99.90
38458;DHT22;24239;48.058;10.486;2022-10-16T09:39:00;20.60;99.90
38458;DHT22;24239;48.058;10.486;2022-10-16T09:41:26;20.70;99.90
38458;DHT22;24239;48.058;10.486;2022-10-16T09:48:48;20.50;99.90
38458;DHT22;24239;48.058;10.486;2022-10-16T09:51:22;20.30;99.90
38458;DHT22;24239;48.058;10.486;2022-10-16T09:53:48;20.20;99.90
38458;DHT22;24239;48.058;10.486;2022-10-16T09:56:22;20.10;99.90
38458;DHT22;24239;48.058;10.486;2022-10-16T09:58:52;20.00;99.90
38458;DHT22;24239;48.058;10.486;2022-10-16T10:01:18;20.00;99.90
38458;DHT22;24239;48.058;10.486;2022-10-16T10:03:44;20.10;99.90
38458;DHT22;24239;48.058;10.486;2022-10-16T10:06:28;20.20;99.90
38458;DHT22;24239;48.058;10.486;2022-10-16T10:09:04;20.30;99.90
38458;DHT22;24239;48.058;10.486;2022-10-16T10:14:17;20.80;99.90
38458;DHT22;24239;48.058;10.486;2022-10-16T10:16:43;21.00;99.90
38458;DHT22;24239;48.058;10.486;2022-10-16T10:19:13;21.10;99.90
38458;DHT22;24239;48.058;10.486;2022-10-16T10:21:39;21.10;99.90
38458;DHT22;24239;48.058;10.486;2022-10-16T10:24:04;21.30;99.90
38458;DHT22;24239;48.058;10.486;2022-10-16T10:26:30;21.30;99.90
38458;DHT22;24239;48.058;10.486;2022-10-16T10:29:03;21.30;99.90
38458;DHT22;24239;48.058;10.486;2022-10-16T10:36:56;21.60;99.90
38458;DHT22;24239;48.058;10.486;2022-10-16T10:39:29;21.70;99.90
38458;DHT22;24239;48.058;10.486;2022-10-16T10:42:01;21.70;99.90
38458;DHT22;24239;48.058;10.486;2022-10-16T10:52:09;22.00;99.90
38458;DHT22;24239;48.058;10.486;2022-10-16T10:57:07;22.30;99.90
38458;DHT22;24239;48.058;10.486;2022-10-16T11:07:36;22.20;99.90
38458;DHT22;24239;48.058;10.486;2022-10-16T11:10:05;21.90;99.90
38458;DHT22;24239;48.058;10.486;2022-10-16T11:12:36;21.80;99.90
38458;DHT22;24239;48.058;10.486;2022-10-16T11:15:07;21.70;99.90
38458;DHT22;24239;48.058;10.486;2022-10-16T11:17:45;21.50;99.90
38458;DHT22;24239;48.058;10.486;2022-10-16T11:20:20;21.30;99.90
38458;DHT22;24239;48.058;10.486;2022-10-16T11:22:56;21.20;99.90
38458;DHT22;24239;48.058;10.486;2022-10-16T11:27:55;21.10;99.90
38458;DHT22;24239;48.058;10.486;2022-10-16T11:30:24;21.10;99.90
38458;DHT22;24239;48.058;10.486;2022-10-16T11:33:04;21.10;99.90
38458;DHT22;24239;48.058;10.486;2022-10-16T11:38:03;21.10;99.90
38458;DHT22;24239;48.058;10.486;2022-10-16T11:40:35;21.10;99.90
38458;DHT22;24239;48.058;10.486;2022-10-16T11:43:10;21.10;99.90
38458;DHT22;24239;48.058;10.486;2022-10-16T11:45:44;21.10;99.90
38458;DHT22;24239;48.058;10.486;2022-10-16T11:50:43;21.10;99.90
38458;DHT22;24239;48.058;10.486;2022-10-16T11:55:49;21.30;99.90
38458;DHT22;24239;48.058;10.486;2022-10-16T12:10:32;21.40;99.90
38458;DHT22;24239;48.058;10.486;2022-10-16T12:13:02;21.50;99.90
38458;DHT22;24239;48.058;10.486;2022-10-16T12:15:29;21.40;99.90
38458;DHT22;24239;48.058;10.486;2022-10-16T12:17:55;21.40;99.90
38458;DHT22;24239;48.058;10.486;2022-10-16T12:23:16;21.50;99.90
38458;DHT22;24239;48.058;10.486;2022-10-16T12:25:53;21.50;99.90
38458;DHT22;24239;48.058;10.486;2022-10-16T12:28:20;21.50;99.90
38458;DHT22;24239;48.058;10.486;2022-10-16T12:35:47;21.40;99.90
38458;DHT22;24239;48.058;10.486;2022-10-16T12:38:15;21.40;99.90
38458;DHT22;24239;48.058;10.486;2022-10-16T12:40:41;21.50;99.90
38458;DHT22;24239;48.058;10.486;2022-10-16T12:45:46;21.70;99.90
38458;DHT22;24239;48.058;10.486;2022-10-16T12:48:21;21.80;99.90
38458;DHT22;24239;48.058;10.486;2022-10-16T12:50:47;21.80;99.90
38458;DHT22;24239;48.058;10.486;2022-10-16T12:53:20;21.90;99.90
38458;DHT22;24239;48.058;10.486;2022-10-16T12:58:49;22.00;99.90
38458;DHT22;24239;48.058;10.486;2022-10-16T13:09:13;21.80;99.90
38458;DHT22;24239;48.058;10.486;2022-10-16T13:20:02;22.10;99.90
38458;DHT22;24239;48.058;10.486;2022-10-16T13:32:50;22.10;99.90
38458;DHT22;24239;48.058;10.486;2022-10-16T13:35:23;22.00;99.90
38458;DHT22;24239;48.058;10.486;2022-10-16T13:38:02;22.00;99.90
38458;DHT22;24239;48.058;10.486;2022-10-16T13:40:28;22.00;99.90
38458;DHT22;24239;48.058;10.486;2022-10-16T13:42:53;21.90;99.40
38458;DHT22;24239;48.058;10.486;2022-10-16T13:45:21;21.90;99.20
38458;DHT22;24239;48.058;10.486;2022-10-16T13:47:47;21.90;99.00
38458;DHT22;24239;48.058;10.486;2022-10-16T13:50:13;21.90;99.10
38458;DHT22;24239;48.058;10.486;2022-10-16T13:52:39;22.00;99.30
38458;DHT22;24239;48.058;10.486;2022-10-16T13:55:12;22.00;99.90
38458;DHT22;24239;48.058;10.486;2022-10-16T13:57:38;21.90;99.90
38458;DHT22;24239;48.058;10.486;2022-10-16T14:00:23;22.00;99.90
38458;DHT22;24239;48.058;10.486;2022-10-16T14:03:02;22.00;99.90
38458;DHT22;24239;48.058;10.486;2022-10-16T14:05:28;22.00;99.90
38458;DHT22;24239;48.058;10.486;2022-10-16T14:07:54;22.10;99.90
38458;DHT22;24239;48.058;10.486;2022-10-16T14:12:59;22.10;99.90
38458;DHT22;24239;48.058;10.486;2022-10-16T14:15:25;22.10;99.90
38458;DHT22;24239;48.058;10.486;2022-10-16T14:17:51;22.10;99.90
38458;DHT22;24239;48.058;10.486;2022-10-16T14:20:18;22.10;99.90
38458;DHT22;24239;48.058;10.486;2022-10-16T14:22:44;22.00;99.90
38458;DHT22;24239;48.058;10.486;2022-10-16T14:27:56;22.00;99.90
38458;DHT22;24239;48.058;10.486;2022-10-16T14:30:22;22.00;99.90
38458;DHT22;24239;48.058;10.486;2022-10-16T14:33:33;22.00;99.90
38458;DHT22;24239;48.058;10.486;2022-10-16T14:35:39;22.00;99.90
38458;DHT22;24239;48.058;10.486;2022-10-16T14:38:05;22.00;99.90
38458;DHT22;24239;48.058;10.486;2022-10-16T14:40:33;21.90;99.90
38458;DHT22;24239;48.058;10.486;2022-10-16T14:42:59;21.90;99.90
38458;DHT22;24239;48.058;10.486;2022-10-16T14:45:27;21.70;99.90
38458;DHT22;24239;48.058;10.486;2022-10-16T14:47:54;21.60;99.90
38458;DHT22;24239;48.058;10.486;2022-10-16T14:50:21;21.50;99.90
38458;DHT22;24239;48.058;10.486;2022-10-16T14:52:47;21.30;99.90
38458;DHT22;24239;48.058;10.486;2022-10-16T14:55:12;21.10;99.90
38458;DHT22;24239;48.058;10.486;2022-10-16T14:57:38;21.10;99.90
38458;DHT22;24239;48.058;10.486;2022-10-16T15:00:25;21.00;99.90
38458;DHT22;24239;48.058;10.486;2022-10-16T15:02:51;20.90;99.90
38458;DHT22;24239;48.058;10.486;2022-10-16T15:07:42;20.70;99.90
38458;DHT22;24239;48.058;10.486;2022-10-16T15:10:08;20.60;99.90
38458;DHT22;24239;48.058;10.486;2022-10-16T15:12:33;20.40;99.90
38458;DHT22;24239;48.058;10.486;2022-10-16T15:14:59;20.30;99.90
38458;DHT22;24239;48.058;10.486;2022-10-16T15:17:25;20.20;99.90
38458;DHT22;24239;48.058;10.486;2022-10-16T15:19:51;20.20;99.90
38458;DHT22;24239;48.058;10.486;2022-10-16T15:22:16;20.20;99.90
38458;DHT22;24239;48.058;10.486;2022-10-16T15:24:42;20.10;99.90
38458;DHT22;24239;48.058;10.486;2022-10-16T15:27:19;20.00;99.90
38458;DHT22;24239;48.058;10.486;2022-10-16T15:29:45;19.90;99.90
38458;DHT22;24239;48.058;10.486;2022-10-16T15:32:10;19.80;99.90
38458;DHT22;24239;48.058;10.486;2022-10-16T15:34:36;19.60;99.90
38458;DHT22;24239;48.058;10.486;2022-10-16T15:37:03;19.60;99.90
38458;DHT22;24239;48.058;10.486;2022-10-16T15:39:28;19.40;99.90
38458;DHT22;24239;48.058;10.486;2022-10-16T15:41:54;19.30;99.90
38458;DHT22;24239;48.058;10.486;2022-10-16T15:44:20;19.20;99.90
38458;DHT22;24239;48.058;10.486;2022-10-16T15:46:48;19.10;99.90
38458;DHT22;24239;48.058;10.486;2022-10-16T15:49:14;19.00;99.90
38458;DHT22;24239;48.058;10.486;2022-10-16T15:51:40;18.90;99.90
38458;DHT22;24239;48.058;10.486;2022-10-16T15:54:06;18.70;99.90
38458;DHT22;24239;48.058;10.486;2022-10-16T15:56:32;18.60;99.90
38458;DHT22;24239;48.058;10.486;2022-10-16T15:59:01;18.50;99.90
38458;DHT22;24239;48.058;10.486;2022-10-16T16:01:27;18.40;99.90
38458;DHT22;24239;48.058;10.486;2022-10-16T16:03:54;18.30;99.90
38458;DHT22;24239;48.058;10.486;2022-10-16T16:06:21;18.20;99.90
38458;DHT22;24239;48.058;10.486;2022-10-16T16:08:46;18.10;99.90
38458;DHT22;24239;48.058;10.486;2022-10-16T16:11:15;18.00;99.90
38458;DHT22;24239;48.058;10.486;2022-10-16T16:13:41;17.80;99.90
38458;DHT22;24239;48.058;10.486;2022-10-16T16:16:11;17.70;99.90
38458;DHT22;24239;48.058;10.486;2022-10-16T16:18:37;17.60;99.90
38458;DHT22;24239;48.058;10.486;2022-10-16T16:21:04;17.40;99.90
38458;DHT22;24239;48.058;10.486;2022-10-16T16:23:32;17.30;99.90
38458;DHT22;24239;48.058;10.486;2022-10-16T16:26:06;17.20;99.90
38458;DHT22;24239;48.058;10.486;2022-10-16T16:28:33;17.00;99.90
38458;DHT22;24239;48.058;10.486;2022-10-16T16:30:58;16.90;99.90
38458;DHT22;24239;48.058;10.486;2022-10-16T16:33:24;16.80;99.90
38458;DHT22;24239;48.058;10.486;2022-10-16T16:35:50;16.70;99.90
38458;DHT22;24239;48.058;10.486;2022-10-16T16:38:15;16.60;99.90
38458;DHT22;24239;48.058;10.486;2022-10-16T16:40:41;16.40;99.90
38458;DHT22;24239;48.058;10.486;2022-10-16T16:43:08;16.40;99.90
38458;DHT22;24239;48.058;10.486;2022-10-16T16:45:37;16.20;99.90
38458;DHT22;24239;48.058;10.486;2022-10-16T16:48:02;16.10;99.90
38458;DHT22;24239;48.058;10.486;2022-10-16T16:50:28;16.00;99.90
38458;DHT22;24239;48.058;10.486;2022-10-16T16:52:57;15.90;99.90
38458;DHT22;24239;48.058;10.486;2022-10-16T16:55:22;15.80;99.90
38458;DHT22;24239;48.058;10.486;2022-10-16T16:57:48;15.70;99.90
38458;DHT22;24239;48.058;10.486;2022-10-16T17:00:13;15.60;99.90
38458;DHT22;24239;48.058;10.486;2022-10-16T17:02:39;15.50;99.90
38458;DHT22;24239;48.058;10.486;2022-10-16T17:05:08;15.50;99.90
38458;DHT22;24239;48.058;10.486;2022-10-16T17:07:34;15.40;99.90
38458;DHT22;24239;48.058;10.486;2022-10-16T17:10:00;15.30;99.90
38458;DHT22;24239;48.058;10.486;2022-10-16T17:12:29;15.20;99.90
38458;DHT22;24239;48.058;10.486;2022-10-16T17:14:55;15.20;99.90
38458;DHT22;24239;48.058;10.486;2022-10-16T17:17:21;15.20;99.90
38458;DHT22;24239;48.058;10.486;2022-10-16T17:19:48;15.10;99.90
38458;DHT22;24239;48.058;10.486;2022-10-16T17:22:14;15.00;99.90
38458;DHT22;24239;48.058;10.486;2022-10-16T17:24:40;15.00;99.90
38458;DHT22;24239;48.058;10.486;2022-10-16T17:27:05;14.90;99.90
38458;DHT22;24239;48.058;10.486;2022-10-16T17:29:32;14.90;99.90
38458;DHT22;24239;48.058;10.486;2022-10-16T17:31:58;14.80;99.90
38458;DHT22;24239;48.058;10.486;2022-10-16T17:34:24;14.80;99.90
38458;DHT22;24239;48.058;10.486;2022-10-16T17:36:49;14.70;99.90
38458;DHT22;24239;48.058;10.486;2022-10-16T17:39:15;14.60;99.90
38458;DHT22;24239;48.058;10.486;2022-10-16T17:41:42;14.60;99.90